KTIX/TIX METAR and TAF weather

Enter ICAO airport designator
Station Type Date Time Source
KTIX METAR 2020/04/08 21:47 UTC NOAA

KTIX 082147Z 24008KT 7SM BKN050 33/19 A2986


Station Type Date Time Source
KTIX Decoded METAR 2020/04/08 21:47 UTC NOAA

Titusville, FL, United States (KTIX) 28-31N 080-48W
Apr 08, 2020 - 05:47 PM EDT / 2020.04.08 2147 UTC
Wind: from the WSW (240 degrees) at 9 MPH (8 KT):0
Visibility: 7 mile(s):0
Sky conditions: mostly cloudy
Temperature: 91 F (33 C)
Dew Point: 66 F (19 C)
Relative Humidity: 43%
Pressure (altimeter): 29.86 in. Hg (1011 hPa)
ob: KTIX 082147Z 24008KT 7SM BKN050 33/19 A2986
cycle: 22

Station Type Date Time Source
KTIX TAF 2020/04/08 18:48 UTC NOAA

TAF KTIX 081745Z 0818/0918 27009KT P6SM SCT035
FM082100 17010KT P6SM SCT040
FM090100 22011KT P6SM SCT250
FM091100 25011KT P6SM SCT015 BKN025
FM091500 27014G20KT P6SM SCT025 BKN030

Example: see airport list